createdAt,value
2022-10-11T00:00:32.927Z,88.65
2022-10-11T00:02:59.373Z,89.12
2022-10-11T00:05:25.843Z,88.84
2022-10-11T00:07:52.316Z,88.82
2022-10-11T00:10:19.132Z,89.48
2022-10-11T00:12:45.612Z,88.82
2022-10-11T00:15:13.490Z,88.57
2022-10-11T00:17:39.887Z,88.68
2022-10-11T00:20:06.793Z,88.95
2022-10-11T00:22:34.793Z,88.68
2022-10-11T00:25:01.217Z,88.82
2022-10-11T00:27:27.636Z,88.64
2022-10-11T00:29:54.132Z,89.50
2022-10-11T00:32:20.503Z,88.58
2022-10-11T00:34:47.012Z,89.35
2022-10-11T00:37:13.401Z,88.52
2022-10-11T00:39:39.832Z,88.60
2022-10-11T00:42:13.809Z,89.35
2022-10-11T00:44:40.923Z,88.54
2022-10-11T00:47:10.131Z,88.42
2022-10-11T00:49:41.047Z,88.80
2022-10-11T00:52:22.592Z,88.78
2022-10-11T00:54:49.003Z,89.19
2022-10-11T00:57:18.764Z,89.30
2022-10-11T00:59:47.904Z,89.23
2022-10-11T01:02:14.320Z,88.81
2022-10-11T01:04:40.757Z,89.31
2022-10-11T01:07:07.161Z,88.74
2022-10-11T01:09:33.527Z,89.19
2022-10-11T01:12:01.445Z,88.85
2022-10-11T01:14:33.753Z,88.39
2022-10-11T01:17:37.256Z,88.54
2022-10-11T01:20:22.133Z,88.56
2022-10-11T01:23:09.449Z,88.20
2022-10-11T01:26:09.937Z,88.46
2022-10-11T01:28:49.360Z,88.32
2022-10-11T01:31:34.321Z,88.91
2022-10-11T01:34:06.471Z,88.43
2022-10-11T01:36:41.659Z,88.61
2022-10-11T01:39:28.700Z,89.26
2022-10-11T01:41:56.463Z,89.01
2022-10-11T01:44:23.980Z,89.11
2022-10-11T01:46:51.768Z,88.45
2022-10-11T01:49:18.221Z,89.01
2022-10-11T01:51:49.338Z,88.41
2022-10-11T01:54:22.547Z,88.88
2022-10-11T01:57:07.533Z,88.88
2022-10-11T01:59:39.677Z,88.29
2022-10-11T02:02:30.908Z,88.99
2022-10-11T02:05:11.427Z,88.39
2022-10-11T02:07:51.848Z,88.96
2022-10-11T02:10:26.797Z,88.52
2022-10-11T02:13:14.454Z,88.92
2022-10-11T02:15:41.012Z,88.35
2022-10-11T02:18:10.119Z,88.31
2022-10-11T02:20:37.203Z,88.93
2022-10-11T02:23:08.035Z,88.73
2022-10-11T02:25:35.075Z,88.64
2022-10-11T02:28:02.344Z,88.32
2022-10-11T02:30:29.694Z,88.90
2022-10-11T02:32:56.103Z,88.87
2022-10-11T02:35:22.561Z,88.15
2022-10-11T02:37:54.265Z,88.29
2022-10-11T02:40:27.146Z,88.89
2022-10-11T02:42:59.239Z,89.34
2022-10-11T02:45:33.093Z,88.44
2022-10-11T02:47:59.511Z,88.71
2022-10-11T02:50:26.325Z,88.95
2022-10-11T02:52:52.725Z,89.06
2022-10-11T02:55:19.166Z,88.97
2022-10-11T02:57:45.570Z,89.05
2022-10-11T03:00:12.682Z,88.60
2022-10-11T03:02:39.072Z,88.79
2022-10-11T03:05:05.501Z,89.15
2022-10-11T03:07:31.884Z,88.74
2022-10-11T03:09:58.246Z,88.53
2022-10-11T03:12:24.644Z,88.75
2022-10-11T03:14:51.023Z,88.74
2022-10-11T03:17:35.615Z,89.26
2022-10-11T03:20:03.853Z,88.99
2022-10-11T03:22:30.645Z,89.57
2022-10-11T03:25:01.093Z,89.37
2022-10-11T03:27:29.892Z,88.63
2022-10-11T03:29:56.285Z,89.59
2022-10-11T03:32:22.669Z,88.99
2022-10-11T03:34:49.068Z,89.06
2022-10-11T03:37:15.471Z,88.95
2022-10-11T03:39:41.983Z,88.44
2022-10-11T03:42:08.398Z,89.38
2022-10-11T03:44:34.853Z,89.36
2022-10-11T03:47:01.253Z,89.27
2022-10-11T03:49:27.645Z,89.76
2022-10-11T03:51:54.015Z,89.72
2022-10-11T03:54:20.396Z,89.64
2022-10-11T03:56:46.787Z,88.83
2022-10-11T03:59:13.225Z,89.65
2022-10-11T04:01:39.632Z,88.81
2022-10-11T04:04:06.272Z,89.97
2022-10-11T04:06:32.840Z,89.64
2022-10-11T04:08:59.279Z,89.15
2022-10-11T04:11:25.697Z,89.53
2022-10-11T04:13:52.085Z,89.17
2022-10-11T04:16:18.458Z,89.18
2022-10-11T04:18:44.839Z,88.89
2022-10-11T04:21:11.228Z,89.03
2022-10-11T04:23:37.601Z,88.92
2022-10-11T04:26:05.664Z,89.18
2022-10-11T04:28:32.790Z,88.82
2022-10-11T04:30:59.280Z,89.27
2022-10-11T04:33:25.648Z,89.16
2022-10-11T04:35:55.556Z,89.41
2022-10-11T04:38:22.603Z,89.50
2022-10-11T04:40:49.029Z,89.38
2022-10-11T04:43:15.493Z,89.36
2022-10-11T04:45:42.354Z,89.58
2022-10-11T04:48:08.736Z,89.55
2022-10-11T04:50:35.222Z,88.81
2022-10-11T04:53:01.594Z,89.33
2022-10-11T04:55:28.105Z,88.71
2022-10-11T04:57:54.525Z,89.17
2022-10-11T05:00:20.950Z,89.27
2022-10-11T05:02:47.315Z,88.73
2022-10-11T05:05:13.718Z,88.95
2022-10-11T05:07:40.100Z,88.33
2022-10-11T05:10:07.217Z,88.87
2022-10-11T05:12:33.608Z,89.10
2022-10-11T05:15:00.051Z,88.87
2022-10-11T05:17:26.446Z,89.26
2022-10-11T05:19:52.817Z,89.05
2022-10-11T05:22:19.222Z,88.95
2022-10-11T05:24:45.576Z,89.36
2022-10-11T05:27:11.960Z,88.85
2022-10-11T05:29:38.373Z,89.17
2022-10-11T05:32:04.928Z,88.96
2022-10-11T05:34:31.325Z,89.23
2022-10-11T05:36:57.710Z,88.81
2022-10-11T05:39:24.188Z,89.50
2022-10-11T05:41:50.594Z,88.90
2022-10-11T05:44:16.956Z,89.56
2022-10-11T05:46:43.417Z,89.38
2022-10-11T05:49:09.784Z,89.17
2022-10-11T05:51:36.185Z,88.89
2022-10-11T05:54:02.565Z,89.26
2022-10-11T05:56:28.972Z,89.10
2022-10-11T05:58:59.919Z,88.91
2022-10-11T06:01:28.565Z,89.53
2022-10-11T06:03:55.102Z,88.79
2022-10-11T06:06:21.647Z,88.85
2022-10-11T06:08:48.292Z,89.26
2022-10-11T06:11:16.595Z,88.92
2022-10-11T06:13:43.052Z,88.39
2022-10-11T06:16:09.663Z,88.72
2022-10-11T06:18:36.381Z,88.34
2022-10-11T06:21:03.070Z,88.74
2022-10-11T06:23:29.542Z,88.68
2022-10-11T06:25:59.517Z,88.33
2022-10-11T06:28:27.069Z,88.42
2022-10-11T06:30:53.596Z,88.43
2022-10-11T06:33:20.205Z,88.97
2022-10-11T06:35:46.742Z,88.73
2022-10-11T06:38:13.288Z,88.67
2022-10-11T06:40:39.751Z,88.90
2022-10-11T06:43:06.153Z,89.22
2022-10-11T06:45:32.530Z,88.89
2022-10-11T06:47:58.987Z,89.10
2022-10-11T06:50:47.205Z,88.38
2022-10-11T06:53:12.035Z,88.92
2022-10-11T06:55:38.553Z,88.58
2022-10-11T06:58:05.111Z,89.09
2022-10-11T07:00:31.577Z,88.78
2022-10-11T07:02:58.118Z,88.94
2022-10-11T07:05:24.642Z,88.31
2022-10-11T07:07:51.144Z,88.79
2022-10-11T07:10:17.719Z,88.38
2022-10-11T07:12:44.424Z,88.05
2022-10-11T07:15:10.993Z,88.83
2022-10-11T07:17:37.400Z,87.85
2022-10-11T07:20:05.052Z,88.48
2022-10-11T07:22:31.417Z,87.87
2022-10-11T07:24:57.829Z,88.45
2022-10-11T07:27:24.237Z,87.75
2022-10-11T07:29:50.629Z,88.07
2022-10-11T07:32:17.011Z,87.80
2022-10-11T07:34:43.598Z,87.23
2022-10-11T07:37:10.003Z,87.10
2022-10-11T07:39:36.444Z,87.93
2022-10-11T07:42:02.973Z,87.67
2022-10-11T07:44:29.368Z,87.45
2022-10-11T07:46:56.144Z,86.83
2022-10-11T07:49:22.541Z,86.94
2022-10-11T07:51:48.938Z,87.50
2022-10-11T07:54:15.307Z,86.87
2022-10-11T07:56:41.710Z,86.73
2022-10-11T07:59:08.079Z,87.50
2022-10-11T08:01:34.556Z,87.30
2022-10-11T08:04:00.969Z,86.56
2022-10-11T08:06:28.852Z,86.29
2022-10-11T08:08:55.285Z,86.28
2022-10-11T08:11:22.595Z,86.53
2022-10-11T08:13:49.069Z,85.86
2022-10-11T08:16:15.499Z,84.99
2022-10-11T08:18:41.884Z,85.14
2022-10-11T08:21:09.312Z,85.60
2022-10-11T08:23:35.742Z,85.52
2022-10-11T08:26:02.536Z,84.85
2022-10-11T08:28:29.220Z,85.59
2022-10-11T08:30:55.627Z,84.94
2022-10-11T08:33:22.873Z,84.79
2022-10-11T08:35:49.524Z,84.54
2022-10-11T08:38:15.944Z,84.22
2022-10-11T08:40:53.188Z,84.21
2022-10-11T08:43:31.765Z,84.52
2022-10-11T08:45:59.805Z,84.24
2022-10-11T08:48:34.400Z,84.50
2022-10-11T08:51:00.772Z,84.20
2022-10-11T08:53:35.673Z,82.84
2022-10-11T08:56:02.077Z,82.95
2022-10-11T08:58:56.331Z,83.15
2022-10-11T09:01:24.840Z,82.99
2022-10-11T09:03:51.326Z,82.85
2022-10-11T09:06:23.598Z,82.91
2022-10-11T09:09:11.148Z,82.05
2022-10-11T09:12:19.576Z,81.90
2022-10-11T09:15:02.267Z,82.61
2022-10-11T09:17:46.828Z,81.61
2022-10-11T09:20:34.874Z,80.38
2022-10-11T09:23:05.116Z,80.78
2022-10-11T09:25:33.179Z,80.38
2022-10-11T09:28:15.078Z,79.72
2022-10-11T09:30:47.095Z,79.93
2022-10-11T09:33:18.155Z,80.50
2022-10-11T09:35:47.002Z,80.63
2022-10-11T09:38:43.058Z,80.89
2022-10-11T09:41:11.541Z,79.82
2022-10-11T09:43:37.937Z,78.66
2022-10-11T09:46:23.096Z,78.85
2022-10-11T09:48:49.504Z,78.97
2022-10-11T09:51:18.409Z,78.36
2022-10-11T09:53:53.545Z,78.49
2022-10-11T09:56:19.907Z,76.91
2022-10-11T09:58:46.316Z,76.23
2022-10-11T10:01:22.139Z,76.20
2022-10-11T10:03:48.565Z,77.05
2022-10-11T10:06:23.674Z,76.74
2022-10-11T10:08:50.089Z,75.07
2022-10-11T10:11:16.792Z,74.82
2022-10-11T10:14:01.314Z,74.33
2022-10-11T10:16:31.707Z,74.87
2022-10-11T10:19:02.064Z,75.13
2022-10-11T10:21:33.014Z,74.69
2022-10-11T10:24:00.292Z,75.31
2022-10-11T10:26:26.767Z,75.71
2022-10-11T10:28:58.562Z,75.25
2022-10-11T10:31:40.302Z,75.62
2022-10-11T10:34:19.527Z,75.86
2022-10-11T10:36:47.228Z,74.89
2022-10-11T10:39:22.675Z,74.36
2022-10-11T10:41:49.102Z,72.91
2022-10-11T10:44:15.487Z,71.74
2022-10-11T10:46:47.894Z,70.77
2022-10-11T10:49:52.514Z,70.76
2022-10-11T10:52:45.938Z,70.96
2022-10-11T10:55:33.382Z,70.36
2022-10-11T10:58:05.747Z,69.93
2022-10-11T11:01:02.532Z,68.34
2022-10-11T11:03:47.616Z,67.10
2022-10-11T11:06:28.438Z,66.27
2022-10-11T11:09:16.235Z,67.02
2022-10-11T11:12:01.049Z,67.40
2022-10-11T11:14:47.035Z,67.50
2022-10-11T11:17:44.164Z,67.63
2022-10-11T11:20:28.841Z,68.39
2022-10-11T11:23:15.107Z,68.69
2022-10-11T11:25:46.676Z,67.63
2022-10-11T11:28:31.249Z,69.05
2022-10-11T11:31:19.401Z,68.60
2022-10-11T11:34:16.467Z,69.01
2022-10-11T11:36:45.853Z,68.77
2022-10-11T11:39:22.295Z,68.58
2022-10-11T11:41:53.430Z,68.80
2022-10-11T11:44:26.465Z,69.89
2022-10-11T11:47:02.652Z,70.80
2022-10-11T11:49:37.831Z,70.47
2022-10-11T11:52:05.660Z,69.60
2022-10-11T11:54:39.477Z,70.61
2022-10-11T11:57:13.868Z,69.07
2022-10-11T12:00:00.609Z,68.33
2022-10-11T12:02:55.451Z,68.34
2022-10-11T12:05:27.608Z,68.40
2022-10-11T12:08:07.469Z,68.48
2022-10-11T12:10:59.831Z,69.03
2022-10-11T12:13:38.848Z,68.76
2022-10-11T12:16:14.898Z,68.99
2022-10-11T12:18:53.752Z,68.78
2022-10-11T12:21:38.666Z,69.45
2022-10-11T12:24:12.716Z,69.15
2022-10-11T12:26:42.829Z,68.97
2022-10-11T12:29:47.016Z,67.76
2022-10-11T12:32:36.628Z,68.51
2022-10-11T12:35:31.023Z,67.48
2022-10-11T12:38:04.824Z,67.63
2022-10-11T12:40:40.679Z,67.85
2022-10-11T12:43:16.598Z,67.47
2022-10-11T12:45:45.894Z,69.03
2022-10-11T12:48:40.666Z,68.94
2022-10-11T12:51:17.546Z,69.66
2022-10-11T12:54:25.607Z,68.29
2022-10-11T12:57:11.035Z,68.38
2022-10-11T12:59:39.602Z,69.13
2022-10-11T13:02:34.869Z,65.40
2022-10-11T13:05:17.063Z,61.58
2022-10-11T13:07:43.495Z,56.95
2022-10-11T13:10:14.373Z,54.08
2022-10-11T13:12:41.227Z,49.88
2022-10-11T13:15:15.672Z,50.20
2022-10-11T13:17:42.101Z,52.66
2022-10-11T13:20:19.232Z,54.01
2022-10-11T13:22:53.039Z,55.34
2022-10-11T13:25:25.125Z,51.35
2022-10-11T13:27:52.624Z,44.87
2022-10-11T13:30:26.318Z,39.47
2022-10-11T13:32:55.007Z,36.62
2022-10-11T13:35:34.082Z,34.83
2022-10-11T13:38:03.189Z,33.98
2022-10-11T13:40:29.841Z,35.47
2022-10-11T13:42:56.521Z,38.85
2022-10-11T13:45:27.484Z,36.49
2022-10-11T13:47:55.298Z,33.70
2022-10-11T13:50:25.460Z,36.46
2022-10-11T13:53:22.701Z,42.58
2022-10-11T13:55:59.172Z,47.14
2022-10-11T13:58:37.103Z,50.78
2022-10-11T14:01:07.335Z,53.68
2022-10-11T14:03:43.442Z,55.76
2022-10-11T14:06:09.880Z,57.77
2022-10-11T14:08:46.169Z,59.01
2022-10-11T14:11:12.865Z,60.20
2022-10-11T14:13:48.532Z,60.61
2022-10-11T14:16:20.549Z,61.67
2022-10-11T14:18:59.080Z,63.17
2022-10-11T14:21:43.615Z,63.98
2022-10-11T14:24:10.007Z,63.83
2022-10-11T14:26:41.176Z,64.42
2022-10-11T14:29:30.765Z,64.00
2022-10-11T14:32:01.642Z,64.72
2022-10-11T14:34:28.406Z,64.77
2022-10-11T14:36:54.861Z,65.68
2022-10-11T14:39:23.636Z,66.05
2022-10-11T14:41:50.514Z,66.43
2022-10-11T14:44:16.958Z,67.96
2022-10-11T14:46:43.726Z,67.75
2022-10-11T14:49:21.137Z,68.70
2022-10-11T14:51:48.715Z,69.12
2022-10-11T14:54:15.367Z,69.31
2022-10-11T14:56:41.783Z,69.25
2022-10-11T14:59:09.878Z,68.98
2022-10-11T15:01:36.384Z,69.81
2022-10-11T15:04:02.824Z,69.73
2022-10-11T15:06:30.544Z,70.83
2022-10-11T15:08:56.924Z,70.43
2022-10-11T15:11:23.445Z,71.04
2022-10-11T15:13:50.196Z,71.35
2022-10-11T15:16:18.004Z,71.27
2022-10-11T15:18:44.518Z,71.55
2022-10-11T15:21:13.941Z,71.34
2022-10-11T15:23:40.365Z,71.69
2022-10-11T15:26:07.028Z,71.67
2022-10-11T15:28:33.718Z,72.18
2022-10-11T15:31:00.272Z,72.65
2022-10-11T15:33:26.682Z,72.74
2022-10-11T15:35:53.058Z,73.30
2022-10-11T15:38:21.214Z,73.02
2022-10-11T15:40:47.894Z,73.49
2022-10-11T15:43:14.934Z,72.75
2022-10-11T15:45:41.412Z,73.31
2022-10-11T15:48:08.006Z,73.74
2022-10-11T15:50:35.576Z,73.48
2022-10-11T15:53:05.772Z,73.90
2022-10-11T15:55:33.199Z,74.55
2022-10-11T15:57:59.756Z,74.39
2022-10-11T16:00:26.141Z,74.91
2022-10-11T16:02:52.794Z,74.93
2022-10-11T16:05:22.991Z,74.73
2022-10-11T16:07:49.426Z,74.99
2022-10-11T16:10:15.919Z,75.02
2022-10-11T16:12:42.291Z,74.63
2022-10-11T16:15:09.026Z,74.48
2022-10-11T16:17:35.655Z,74.90
2022-10-11T16:20:02.173Z,74.76
2022-10-11T16:22:29.284Z,74.31
2022-10-11T16:24:55.673Z,74.63
2022-10-11T16:27:22.038Z,75.07
2022-10-11T16:29:48.496Z,74.84
2022-10-11T16:32:15.942Z,74.84
2022-10-11T16:34:42.417Z,75.01
2022-10-11T16:37:08.802Z,74.95
2022-10-11T16:39:35.195Z,75.42
2022-10-11T16:42:01.576Z,75.17
2022-10-11T16:44:27.975Z,75.52
2022-10-11T16:46:54.832Z,75.47
2022-10-11T16:49:23.038Z,75.48
2022-10-11T16:51:53.926Z,75.57
2022-10-11T16:54:20.910Z,75.63
2022-10-11T16:56:50.512Z,76.03
2022-10-11T16:59:17.053Z,76.00
2022-10-11T17:01:43.947Z,76.03
2022-10-11T17:04:12.292Z,75.74
2022-10-11T17:06:39.093Z,76.02
2022-10-11T17:09:05.784Z,76.44
2022-10-11T17:11:32.402Z,76.68
2022-10-11T17:13:59.724Z,76.85
2022-10-11T17:16:26.229Z,77.02
2022-10-11T17:18:52.608Z,77.06
2022-10-11T17:21:19.828Z,77.21
2022-10-11T17:23:46.195Z,77.57
2022-10-11T17:26:17.280Z,77.64
2022-10-11T17:28:46.282Z,78.02
2022-10-11T17:31:12.832Z,77.99
2022-10-11T17:33:39.355Z,78.36
2022-10-11T17:36:17.655Z,78.43
2022-10-11T17:38:44.064Z,78.50
2022-10-11T17:41:10.659Z,78.84
2022-10-11T17:43:37.051Z,78.87
2022-10-11T17:46:05.028Z,79.06
2022-10-11T17:48:32.717Z,79.10
2022-10-11T17:50:59.136Z,79.08
2022-10-11T17:53:25.559Z,79.51
2022-10-11T17:55:53.152Z,79.24
2022-10-11T17:58:19.638Z,79.57
2022-10-11T18:00:46.078Z,79.73
2022-10-11T18:03:12.595Z,80.20
2022-10-11T18:05:39.961Z,79.73
2022-10-11T18:08:06.637Z,79.72
2022-10-11T18:10:34.200Z,80.20
2022-10-11T18:13:04.450Z,79.93
2022-10-11T18:15:32.808Z,79.98
2022-10-11T18:17:59.269Z,79.68
2022-10-11T18:20:26.003Z,80.37
2022-10-11T18:22:52.478Z,80.22
2022-10-11T18:25:18.870Z,80.61
2022-10-11T18:27:45.369Z,80.84
2022-10-11T18:30:11.881Z,80.78
2022-10-11T18:32:38.304Z,81.12
2022-10-11T18:35:04.938Z,80.76
2022-10-11T18:37:31.395Z,81.18
2022-10-11T18:39:57.824Z,81.14
2022-10-11T18:42:24.512Z,81.28
2022-10-11T18:44:50.902Z,81.81
2022-10-11T18:47:17.331Z,81.42
2022-10-11T18:49:43.754Z,81.92
2022-10-11T18:52:10.259Z,81.77
2022-10-11T18:54:36.725Z,82.33
2022-10-11T18:57:03.177Z,82.45
2022-10-11T18:59:29.606Z,82.25
2022-10-11T19:01:56.017Z,82.75
2022-10-11T19:04:22.411Z,82.65
2022-10-11T19:06:49.731Z,82.54
2022-10-11T19:09:17.318Z,83.04
2022-10-11T19:11:43.760Z,83.09
2022-10-11T19:14:11.556Z,83.29
2022-10-11T19:16:39.413Z,83.55
2022-10-11T19:19:06.324Z,83.52
2022-10-11T19:21:32.773Z,83.50
2022-10-11T19:24:00.934Z,83.26
2022-10-11T19:26:35.326Z,83.51
2022-10-11T19:29:04.333Z,83.51
2022-10-11T19:31:31.050Z,83.30
2022-10-11T19:33:57.468Z,84.17
2022-10-11T19:36:23.919Z,83.62
2022-10-11T19:38:50.580Z,84.33
2022-10-11T19:41:19.293Z,84.33
2022-10-11T19:43:46.220Z,84.45
2022-10-11T19:46:20.149Z,84.34
2022-10-11T19:48:54.102Z,84.28
2022-10-11T19:51:24.462Z,84.54
2022-10-11T19:53:58.036Z,84.69
2022-10-11T19:56:25.528Z,84.58
2022-10-11T19:58:52.024Z,84.20
2022-10-11T20:01:20.384Z,84.64
2022-10-11T20:03:48.317Z,84.72
2022-10-11T20:06:15.053Z,84.86
2022-10-11T20:08:41.463Z,84.54
2022-10-11T20:11:08.516Z,84.32
2022-10-11T20:13:36.129Z,84.56
2022-10-11T20:16:04.933Z,84.97
2022-10-11T20:18:31.344Z,84.81
2022-10-11T20:21:00.355Z,84.29
2022-10-11T20:23:27.864Z,84.77
2022-10-11T20:26:11.587Z,84.97
2022-10-11T20:28:38.210Z,84.84
2022-10-11T20:31:10.368Z,84.64
2022-10-11T20:33:36.868Z,84.34
2022-10-11T20:36:08.059Z,84.27
2022-10-11T20:38:35.175Z,85.26
2022-10-11T20:41:08.453Z,84.74
2022-10-11T20:43:34.818Z,84.52
2022-10-11T20:46:08.488Z,85.19
2022-10-11T20:48:35.217Z,84.82
2022-10-11T20:51:01.631Z,84.29
2022-10-11T20:53:28.058Z,84.70
2022-10-11T20:55:54.788Z,85.30
2022-10-11T20:58:21.279Z,85.08
2022-10-11T21:00:48.191Z,84.42
2022-10-11T21:03:14.689Z,85.07
2022-10-11T21:05:41.222Z,84.48
2022-10-11T21:08:07.812Z,85.22
2022-10-11T21:10:34.429Z,84.41
2022-10-11T21:13:00.835Z,85.30
2022-10-11T21:15:29.358Z,84.84
2022-10-11T21:17:55.792Z,84.36
2022-10-11T21:20:22.849Z,84.59
2022-10-11T21:22:49.528Z,84.71
2022-10-11T21:25:16.070Z,84.63
2022-10-11T21:27:42.550Z,85.34
2022-10-11T21:30:09.416Z,84.89
2022-10-11T21:32:37.091Z,85.47
2022-10-11T21:35:04.299Z,85.27
2022-10-11T21:37:30.876Z,84.74
2022-10-11T21:39:57.373Z,85.47
2022-10-11T21:42:28.601Z,85.46
2022-10-11T21:44:55.955Z,85.55
2022-10-11T21:47:22.400Z,84.58
2022-10-11T21:49:48.816Z,85.07
2022-10-11T21:52:15.213Z,85.14
2022-10-11T21:54:41.588Z,84.90
2022-10-11T21:57:07.976Z,84.67
2022-10-11T21:59:34.341Z,84.92
2022-10-11T22:02:02.065Z,84.87
2022-10-11T22:04:28.672Z,85.78
2022-10-11T22:06:55.059Z,84.99
2022-10-11T22:09:21.417Z,85.39
2022-10-11T22:11:47.807Z,84.82
2022-10-11T22:14:14.205Z,85.65
2022-10-11T22:16:42.185Z,85.27
2022-10-11T22:19:08.615Z,85.11
2022-10-11T22:21:35.013Z,85.36
2022-10-11T22:24:01.412Z,85.46
2022-10-11T22:26:28.706Z,85.61
2022-10-11T22:28:55.135Z,84.81
2022-10-11T22:31:22.180Z,85.28
2022-10-11T22:33:48.855Z,85.69
2022-10-11T22:36:15.336Z,85.43
2022-10-11T22:38:42.312Z,85.60
2022-10-11T22:41:09.300Z,85.32
2022-10-11T22:43:35.788Z,85.38
2022-10-11T22:46:02.153Z,85.15
2022-10-11T22:48:28.554Z,85.70
2022-10-11T22:50:54.936Z,85.32
2022-10-11T22:53:21.344Z,85.07
2022-10-11T22:55:47.838Z,85.68
2022-10-11T22:58:14.230Z,85.66
2022-10-11T23:00:40.600Z,85.02
2022-10-11T23:03:07.047Z,85.75
2022-10-11T23:05:36.311Z,85.28
2022-10-11T23:08:02.692Z,85.77
2022-10-11T23:10:29.084Z,84.79
2022-10-11T23:12:55.460Z,85.01
2022-10-11T23:15:21.851Z,85.10
2022-10-11T23:17:48.237Z,85.23
2022-10-11T23:20:14.627Z,85.27
2022-10-11T23:22:40.987Z,85.39
2022-10-11T23:25:07.989Z,85.16
2022-10-11T23:27:34.517Z,85.49
2022-10-11T23:30:01.060Z,84.82
2022-10-11T23:32:27.422Z,85.12
2022-10-11T23:34:53.794Z,85.65
2022-10-11T23:37:20.440Z,84.90
2022-10-11T23:39:46.844Z,84.88
2022-10-11T23:42:13.235Z,85.25
2022-10-11T23:44:39.612Z,85.10
2022-10-11T23:47:06.001Z,85.44
2022-10-11T23:49:32.394Z,85.63
2022-10-11T23:51:58.806Z,85.50
2022-10-11T23:54:25.193Z,84.97
2022-10-11T23:56:51.624Z,85.44
2022-10-11T23:59:17.999Z,84.75
